createdAt,value
2023-05-10T00:00:55.497Z,14.02
2023-05-10T00:01:55.838Z,14.02
2023-05-10T00:02:56.168Z,14.02
2023-05-10T00:03:56.380Z,14.01
2023-05-10T00:04:56.539Z,13.99
2023-05-10T00:05:56.897Z,13.98
2023-05-10T00:06:57.126Z,13.99
2023-05-10T00:07:57.474Z,13.99
2023-05-10T00:08:57.729Z,14.01
2023-05-10T00:09:57.993Z,13.99
2023-05-10T00:10:58.292Z,14.01
2023-05-10T00:11:58.611Z,13.99
2023-05-10T00:12:58.912Z,13.99
2023-05-10T00:13:59.140Z,13.99
2023-05-10T00:14:59.495Z,13.99
2023-05-10T00:15:59.815Z,13.99
2023-05-10T00:17:00.182Z,13.99
2023-05-10T00:18:00.389Z,13.99
2023-05-10T00:19:00.584Z,13.99
2023-05-10T00:20:00.857Z,13.99
2023-05-10T00:21:01.172Z,14.01
2023-05-10T00:22:01.463Z,14.01
2023-05-10T00:23:01.840Z,14.02
2023-05-10T00:24:02.139Z,14.01
2023-05-10T00:25:02.476Z,14.02
2023-05-10T00:26:02.760Z,14.01
2023-05-10T00:27:03.022Z,14.01
2023-05-10T00:28:03.348Z,14.01
2023-05-10T00:29:03.637Z,14.02
2023-05-10T00:30:03.951Z,14.02
2023-05-10T00:31:04.206Z,14.02
2023-05-10T00:32:04.523Z,14.01
2023-05-10T00:33:04.805Z,14.01
2023-05-10T00:34:05.057Z,14.02
2023-05-10T00:35:05.373Z,14.02
2023-05-10T00:36:05.682Z,14.02
2023-05-10T00:37:05.976Z,14.01
2023-05-10T00:38:06.273Z,13.99
2023-05-10T00:39:06.600Z,14.01
2023-05-10T00:40:06.880Z,13.99
2023-05-10T00:41:07.197Z,13.98
2023-05-10T00:42:07.460Z,13.98
2023-05-10T00:43:07.758Z,13.98
2023-05-10T00:44:08.073Z,13.98
2023-05-10T00:45:08.317Z,13.96
2023-05-10T00:46:08.760Z,13.96
2023-05-10T00:47:08.872Z,13.96
2023-05-10T00:48:09.171Z,13.95
2023-05-10T00:49:09.524Z,13.96
2023-05-10T00:50:09.787Z,13.98
2023-05-10T00:51:10.088Z,13.98
2023-05-10T00:52:10.400Z,13.98
2023-05-10T00:53:10.634Z,13.98
2023-05-10T00:54:10.909Z,13.99
2023-05-10T00:55:11.187Z,13.99
2023-05-10T00:56:11.510Z,14.01
2023-05-10T00:57:11.817Z,14.02
2023-05-10T00:58:12.076Z,14.01
2023-05-10T00:59:12.388Z,14.02
2023-05-10T01:00:12.682Z,14.02
2023-05-10T01:01:12.970Z,14.02
2023-05-10T01:02:13.241Z,14.02
2023-05-10T01:03:13.529Z,14.04
2023-05-10T01:04:13.821Z,14.02
2023-05-10T01:05:14.060Z,14.02
2023-05-10T01:06:14.404Z,14.02
2023-05-10T01:07:14.682Z,14.02
2023-05-10T01:08:14.946Z,14.04
2023-05-10T01:09:15.258Z,14.04
2023-05-10T01:10:15.749Z,14.04
2023-05-10T01:11:15.977Z,14.02
2023-05-10T01:12:16.299Z,14.02
2023-05-10T01:13:16.543Z,14.02
2023-05-10T01:14:16.786Z,14.02
2023-05-10T01:15:17.100Z,14.01
2023-05-10T01:16:17.451Z,14.04
2023-05-10T01:17:17.695Z,14.01
2023-05-10T01:18:18.020Z,14.02
2023-05-10T01:19:18.307Z,14.02
2023-05-10T01:20:18.827Z,14.02
2023-05-10T01:21:18.905Z,14.02
2023-05-10T01:22:19.180Z,14.02
2023-05-10T01:23:19.512Z,14.02
2023-05-10T01:24:19.777Z,14.02
2023-05-10T01:25:20.049Z,14.02
2023-05-10T01:26:20.320Z,14.02
2023-05-10T01:27:20.589Z,14.01
2023-05-10T01:28:20.922Z,14.01
2023-05-10T01:29:21.212Z,14.01
2023-05-10T01:30:22.335Z,14.01
2023-05-10T01:31:21.769Z,13.99
2023-05-10T01:32:22.095Z,13.99
2023-05-10T01:33:22.419Z,13.99
2023-05-10T01:34:22.740Z,14.01
2023-05-10T01:35:23.006Z,14.01
2023-05-10T01:36:23.314Z,13.99
2023-05-10T01:37:23.610Z,13.99
2023-05-10T01:38:23.931Z,13.99
2023-05-10T01:39:24.193Z,13.98
2023-05-10T01:40:24.499Z,13.96
2023-05-10T01:41:24.856Z,13.98
2023-05-10T01:42:25.093Z,13.96
2023-05-10T01:43:25.429Z,13.98
2023-05-10T01:44:25.717Z,13.98
2023-05-10T01:45:26.043Z,13.96
2023-05-10T01:46:26.308Z,13.96
2023-05-10T01:47:26.589Z,13.98
2023-05-10T01:48:27.013Z,13.96
2023-05-10T01:49:27.163Z,13.96
2023-05-10T01:50:27.430Z,13.98
2023-05-10T01:51:27.733Z,13.98
2023-05-10T01:52:28.052Z,13.98
2023-05-10T01:53:28.360Z,13.98
2023-05-10T01:54:28.595Z,13.96
2023-05-10T01:55:28.955Z,13.95
2023-05-10T01:56:29.203Z,13.95
2023-05-10T01:57:29.445Z,13.95
2023-05-10T01:58:29.728Z,13.95
2023-05-10T01:59:30.027Z,13.94
2023-05-10T02:00:30.372Z,13.94
2023-05-10T02:01:30.620Z,13.94
2023-05-10T02:02:30.912Z,13.94
2023-05-10T02:03:31.171Z,13.94
2023-05-10T02:04:31.440Z,13.91
2023-05-10T02:05:31.785Z,13.91
2023-05-10T02:06:32.040Z,13.94
2023-05-10T02:07:32.372Z,13.92
2023-05-10T02:08:32.632Z,13.94
2023-05-10T02:09:32.935Z,13.95
2023-05-10T02:10:33.255Z,13.94
2023-05-10T02:11:33.526Z,13.94
2023-05-10T02:12:33.851Z,13.94
2023-05-10T02:13:34.142Z,13.94
2023-05-10T02:14:34.466Z,13.94
2023-05-10T02:15:34.740Z,13.92
2023-05-10T02:16:35.083Z,13.92
2023-05-10T02:17:35.331Z,13.94
2023-05-10T02:18:35.622Z,13.94
2023-05-10T02:19:35.928Z,13.94
2023-05-10T02:20:36.212Z,13.95
2023-05-10T02:21:36.464Z,13.92
2023-05-10T02:22:36.744Z,13.94
2023-05-10T02:23:37.038Z,13.94
2023-05-10T02:24:37.365Z,13.94
2023-05-10T02:25:37.647Z,13.94
2023-05-10T02:26:37.945Z,13.91
2023-05-10T02:27:38.235Z,13.92
2023-05-10T02:28:38.474Z,13.94
2023-05-10T02:29:38.804Z,13.92
2023-05-10T02:30:39.069Z,13.92
2023-05-10T02:31:39.381Z,13.92
2023-05-10T02:32:39.641Z,13.94
2023-05-10T02:33:39.930Z,13.94
2023-05-10T02:34:40.247Z,13.92
2023-05-10T02:35:40.516Z,13.92
2023-05-10T02:36:40.791Z,13.94
2023-05-10T02:37:41.102Z,13.95
2023-05-10T02:38:41.374Z,13.95
2023-05-10T02:39:41.715Z,13.95
2023-05-10T02:40:41.991Z,13.95
2023-05-10T02:41:42.292Z,13.95
2023-05-10T02:42:42.573Z,13.95
2023-05-10T02:43:42.877Z,13.95
2023-05-10T02:44:43.154Z,13.95
2023-05-10T02:45:43.549Z,13.95
2023-05-10T02:46:43.740Z,13.96
2023-05-10T02:47:44.054Z,13.96
2023-05-10T02:48:44.293Z,13.98
2023-05-10T02:49:44.578Z,13.98
2023-05-10T02:50:44.917Z,13.98
2023-05-10T02:51:45.145Z,13.96
2023-05-10T02:52:45.477Z,13.98
2023-05-10T02:53:45.745Z,13.98
2023-05-10T02:54:46.000Z,13.98
2023-05-10T02:55:46.334Z,13.96
2023-05-10T02:56:46.603Z,13.99
2023-05-10T02:57:46.836Z,13.99
2023-05-10T02:58:47.139Z,13.98
2023-05-10T02:59:47.453Z,13.96
2023-05-10T03:00:47.740Z,13.96
2023-05-10T03:01:48.178Z,13.98
2023-05-10T03:02:48.382Z,13.96
2023-05-10T03:03:48.577Z,13.98
2023-05-10T03:04:48.904Z,13.98
2023-05-10T03:05:49.204Z,13.98
2023-05-10T03:06:49.490Z,13.98
2023-05-10T03:07:49.789Z,13.99
2023-05-10T03:08:50.103Z,13.98
2023-05-10T03:09:50.374Z,13.98
2023-05-10T03:10:50.722Z,13.98
2023-05-10T03:11:51.005Z,13.99
2023-05-10T03:12:51.265Z,13.98
2023-05-10T03:13:51.590Z,13.98
2023-05-10T03:14:51.872Z,13.98
2023-05-10T03:15:52.254Z,13.99
2023-05-10T03:16:52.511Z,13.99
2023-05-10T03:17:52.888Z,13.98
2023-05-10T03:18:53.166Z,13.98
2023-05-10T03:19:53.477Z,13.99
2023-05-10T03:20:53.803Z,13.99
2023-05-10T03:21:54.162Z,13.99
2023-05-10T03:22:54.409Z,13.98
2023-05-10T03:23:54.766Z,13.98
2023-05-10T03:24:55.029Z,13.99
2023-05-10T03:25:55.385Z,13.98
2023-05-10T03:26:55.704Z,13.98
2023-05-10T03:27:55.980Z,13.96
2023-05-10T03:28:56.304Z,13.98
2023-05-10T03:29:56.584Z,13.98
2023-05-10T03:30:56.979Z,13.98
2023-05-10T03:31:57.231Z,13.98
2023-05-10T03:32:57.627Z,13.98
2023-05-10T03:33:57.767Z,13.98
2023-05-10T03:34:58.116Z,13.96
2023-05-10T03:35:58.505Z,13.95
2023-05-10T03:36:58.749Z,13.95
2023-05-10T03:37:59.083Z,13.96
2023-05-10T03:38:59.416Z,13.95
2023-05-10T03:39:59.698Z,13.96
2023-05-10T03:41:00.056Z,13.95
2023-05-10T03:42:00.348Z,13.95
2023-05-10T03:43:00.701Z,13.94
2023-05-10T03:44:01.009Z,13.95
2023-05-10T03:45:01.364Z,13.94
2023-05-10T03:46:01.627Z,13.94
2023-05-10T03:47:01.916Z,13.95
2023-05-10T03:48:02.152Z,13.94
2023-05-10T03:49:02.352Z,13.94
2023-05-10T03:50:02.578Z,13.95
2023-05-10T03:51:02.889Z,13.95
2023-05-10T03:52:03.138Z,13.95
2023-05-10T03:53:03.338Z,13.92
2023-05-10T03:54:03.577Z,13.92
2023-05-10T03:55:03.815Z,13.92
2023-05-10T03:56:04.180Z,13.94
2023-05-10T03:57:04.383Z,13.94
2023-05-10T03:58:04.578Z,13.94
2023-05-10T03:59:05.001Z,13.94
2023-05-10T04:00:05.158Z,13.95
2023-05-10T04:01:05.486Z,13.94
2023-05-10T04:02:05.884Z,13.95
2023-05-10T04:03:06.201Z,13.94
2023-05-10T04:04:06.571Z,13.94
2023-05-10T04:05:06.770Z,13.96
2023-05-10T04:06:07.140Z,13.95
2023-05-10T04:07:07.282Z,13.96
2023-05-10T04:08:07.628Z,13.96
2023-05-10T04:09:07.945Z,13.95
2023-05-10T04:10:08.374Z,13.95
2023-05-10T04:11:08.604Z,13.96
2023-05-10T04:12:10.835Z,13.96
2023-05-10T04:13:09.272Z,13.98
2023-05-10T04:14:09.546Z,13.99
2023-05-10T04:15:09.876Z,13.99
2023-05-10T04:16:10.229Z,14.01
2023-05-10T04:17:10.553Z,14.02
2023-05-10T04:18:10.840Z,14.02
2023-05-10T04:19:11.209Z,14.04
2023-05-10T04:20:11.531Z,14.06
2023-05-10T04:21:11.885Z,14.07
2023-05-10T04:22:12.069Z,14.09
2023-05-10T04:23:12.297Z,14.09
2023-05-10T04:24:13.581Z,14.10
2023-05-10T04:25:12.942Z,14.12
2023-05-10T04:26:13.272Z,14.13
2023-05-10T04:27:13.599Z,14.14
2023-05-10T04:28:13.955Z,14.16
2023-05-10T04:29:14.225Z,14.17
2023-05-10T04:30:14.592Z,14.17
2023-05-10T04:31:14.731Z,14.19
2023-05-10T04:32:14.918Z,14.21
2023-05-10T04:33:15.260Z,14.24
2023-05-10T04:34:15.509Z,14.25
2023-05-10T04:35:15.780Z,14.27
2023-05-10T04:36:16.097Z,14.27
2023-05-10T04:37:16.337Z,14.28
2023-05-10T04:38:16.585Z,14.28
2023-05-10T04:39:16.828Z,14.31
2023-05-10T04:40:17.264Z,14.31
2023-05-10T04:41:17.365Z,14.31
2023-05-10T04:42:17.559Z,14.31
2023-05-10T04:43:17.875Z,14.32
2023-05-10T04:44:18.086Z,14.32
2023-05-10T04:45:18.456Z,14.35
2023-05-10T04:46:18.751Z,14.34
2023-05-10T04:47:19.110Z,14.35
2023-05-10T04:48:19.356Z,14.37
2023-05-10T04:49:19.660Z,14.35
2023-05-10T04:50:20.021Z,14.35
2023-05-10T04:51:20.388Z,14.35
2023-05-10T04:52:20.607Z,14.35
2023-05-10T04:53:20.826Z,14.37
2023-05-10T04:54:21.249Z,14.37
2023-05-10T04:55:21.483Z,14.37
2023-05-10T04:56:21.760Z,14.37
2023-05-10T04:57:22.038Z,14.37
2023-05-10T04:58:22.292Z,14.39
2023-05-10T04:59:22.467Z,14.42
2023-05-10T05:00:22.791Z,14.42
2023-05-10T05:01:23.066Z,14.44
2023-05-10T05:02:23.341Z,14.44
2023-05-10T05:03:23.591Z,14.47
2023-05-10T05:04:23.882Z,14.49
2023-05-10T05:05:24.085Z,14.49
2023-05-10T05:06:24.411Z,14.52
2023-05-10T05:07:24.928Z,14.53
2023-05-10T05:08:25.100Z,14.54
2023-05-10T05:09:25.396Z,14.56
2023-05-10T05:10:25.850Z,14.54
2023-05-10T05:11:25.947Z,14.60
2023-05-10T05:12:26.030Z,14.60
2023-05-10T05:13:26.604Z,14.61
2023-05-10T05:14:26.572Z,14.62
2023-05-10T05:15:26.966Z,14.67
2023-05-10T05:16:27.606Z,14.71
2023-05-10T05:17:27.650Z,14.74
2023-05-10T05:18:27.712Z,14.78
2023-05-10T05:19:27.972Z,14.83
2023-05-10T05:20:28.379Z,14.84
2023-05-10T05:21:28.480Z,14.86
2023-05-10T05:22:28.888Z,14.90
2023-05-10T05:23:28.971Z,14.90
2023-05-10T05:24:29.349Z,14.93
2023-05-10T05:25:29.914Z,14.95
2023-05-10T05:26:30.032Z,14.98
2023-05-10T05:27:30.091Z,15.01
2023-05-10T05:28:30.459Z,15.01
2023-05-10T05:29:30.668Z,15.02
2023-05-10T05:30:30.948Z,15.03
2023-05-10T05:31:31.224Z,15.05
2023-05-10T05:32:31.447Z,15.05
2023-05-10T05:33:31.689Z,15.08
2023-05-10T05:34:31.941Z,15.11
2023-05-10T05:35:32.321Z,15.08
2023-05-10T05:36:32.636Z,15.09
2023-05-10T05:37:32.878Z,15.12
2023-05-10T05:38:33.107Z,15.13
2023-05-10T05:39:33.381Z,15.12
2023-05-10T05:40:33.866Z,15.17
2023-05-10T05:41:34.102Z,15.17
2023-05-10T05:42:34.164Z,15.17
2023-05-10T05:43:36.680Z,15.19
2023-05-10T05:44:34.766Z,15.20
2023-05-10T05:45:35.020Z,15.12
2023-05-10T05:46:35.365Z,15.11
2023-05-10T05:47:35.670Z,15.13
2023-05-10T05:48:35.837Z,15.13
2023-05-10T05:49:36.205Z,15.15
2023-05-10T05:50:36.403Z,15.13
2023-05-10T05:51:36.848Z,15.15
2023-05-10T05:52:37.025Z,15.17
2023-05-10T05:53:37.290Z,15.13
2023-05-10T05:54:37.537Z,15.13
2023-05-10T05:55:37.827Z,15.15
2023-05-10T05:56:38.085Z,15.20
2023-05-10T05:57:38.301Z,15.23
2023-05-10T05:58:38.652Z,15.28
2023-05-10T05:59:38.865Z,15.30
2023-05-10T06:00:39.125Z,15.31
2023-05-10T06:01:39.502Z,15.36
2023-05-10T06:02:39.805Z,15.39
2023-05-10T06:03:40.040Z,15.43
2023-05-10T06:04:41.593Z,15.48
2023-05-10T06:05:40.585Z,15.51
2023-05-10T06:06:40.782Z,15.56
2023-05-10T06:07:41.054Z,15.60
2023-05-10T06:08:41.366Z,15.64
2023-05-10T06:09:41.615Z,15.70
2023-05-10T06:10:41.869Z,15.75
2023-05-10T06:11:42.102Z,15.81
2023-05-10T06:12:42.365Z,15.84
2023-05-10T06:13:42.615Z,15.86
2023-05-10T06:14:42.896Z,15.92
2023-05-10T06:15:43.093Z,15.89
2023-05-10T06:16:43.393Z,15.89
2023-05-10T06:17:43.682Z,15.92
2023-05-10T06:18:43.904Z,15.94
2023-05-10T06:19:44.166Z,15.96
2023-05-10T06:20:44.393Z,15.99
2023-05-10T06:21:44.622Z,16.04
2023-05-10T06:22:44.833Z,16.06
2023-05-10T06:23:45.289Z,16.07
2023-05-10T06:24:45.491Z,16.09
2023-05-10T06:25:45.760Z,16.11
2023-05-10T06:26:46.046Z,16.12
2023-05-10T06:27:49.853Z,16.11
2023-05-10T06:28:47.609Z,16.11
2023-05-10T06:29:46.959Z,16.11
2023-05-10T06:30:47.230Z,16.09
2023-05-10T06:31:47.549Z,16.07
2023-05-10T06:32:47.755Z,16.07
2023-05-10T06:33:48.002Z,16.07
2023-05-10T06:34:48.287Z,16.06
2023-05-10T06:35:48.485Z,16.04
2023-05-10T06:36:48.748Z,16.03
2023-05-10T06:37:48.999Z,16.00
2023-05-10T06:38:49.260Z,15.96
2023-05-10T06:39:49.555Z,15.92
2023-05-10T06:40:49.775Z,15.88
2023-05-10T06:41:50.012Z,15.84
2023-05-10T06:42:50.235Z,15.78
2023-05-10T06:43:50.516Z,15.75
2023-05-10T06:44:50.739Z,15.70
2023-05-10T06:45:51.008Z,15.70
2023-05-10T06:46:51.329Z,15.68
2023-05-10T06:47:51.562Z,15.70
2023-05-10T06:48:51.799Z,15.70
2023-05-10T06:49:52.038Z,15.72
2023-05-10T06:50:52.263Z,15.72
2023-05-10T06:51:52.586Z,15.75
2023-05-10T06:52:53.239Z,15.78
2023-05-10T06:53:53.146Z,15.78
2023-05-10T06:54:53.433Z,15.79
2023-05-10T06:55:53.756Z,15.78
2023-05-10T06:56:54.096Z,15.81
2023-05-10T06:57:54.397Z,15.81
2023-05-10T06:58:54.627Z,15.81
2023-05-10T06:59:54.872Z,15.81
2023-05-10T07:00:55.176Z,15.85
2023-05-10T07:01:55.474Z,15.84
2023-05-10T07:02:55.713Z,15.88
2023-05-10T07:03:55.926Z,15.89
2023-05-10T07:04:56.391Z,15.93
2023-05-10T07:05:56.631Z,15.93
2023-05-10T07:06:56.855Z,15.93
2023-05-10T07:07:57.094Z,15.93
2023-05-10T07:08:57.348Z,15.97
2023-05-10T07:09:57.610Z,16.01
2023-05-10T07:10:57.772Z,16.03
2023-05-10T07:11:58.155Z,16.07
2023-05-10T07:12:58.565Z,16.06
2023-05-10T07:13:58.643Z,16.07
2023-05-10T07:14:58.887Z,16.14
2023-05-10T07:15:59.162Z,16.18
2023-05-10T07:16:59.457Z,16.20
2023-05-10T07:17:59.824Z,16.20
2023-05-10T07:18:59.903Z,16.20
2023-05-10T07:20:00.211Z,16.20
2023-05-10T07:21:00.494Z,16.18
2023-05-10T07:22:00.713Z,16.18
2023-05-10T07:23:00.976Z,16.15
2023-05-10T07:24:01.268Z,16.14
2023-05-10T07:25:01.480Z,16.11
2023-05-10T07:26:01.702Z,16.07
2023-05-10T07:27:01.927Z,15.99
2023-05-10T07:28:02.200Z,15.94
2023-05-10T07:29:02.409Z,15.88
2023-05-10T07:30:02.729Z,15.81
2023-05-10T07:31:02.986Z,15.78
2023-05-10T07:32:03.244Z,15.76
2023-05-10T07:33:03.511Z,15.74
2023-05-10T07:34:03.752Z,15.68
2023-05-10T07:35:04.006Z,15.68
2023-05-10T07:36:04.259Z,15.67
2023-05-10T07:37:04.496Z,15.66
2023-05-10T07:38:04.805Z,15.66
2023-05-10T07:39:05.037Z,15.64
2023-05-10T07:40:05.263Z,15.64
2023-05-10T07:41:05.559Z,15.67
2023-05-10T07:42:05.785Z,15.67
2023-05-10T07:43:06.043Z,15.70
2023-05-10T07:44:06.258Z,15.74
2023-05-10T07:45:06.555Z,15.79
2023-05-10T07:46:06.851Z,15.84
2023-05-10T07:47:07.026Z,15.89
2023-05-10T07:48:07.305Z,15.94
2023-05-10T07:49:07.577Z,15.99
2023-05-10T07:50:07.840Z,16.04
2023-05-10T07:51:08.106Z,16.12
2023-05-10T07:52:08.449Z,16.20
2023-05-10T07:53:08.672Z,16.31
2023-05-10T07:54:09.013Z,16.40
2023-05-10T07:55:09.236Z,16.50
2023-05-10T07:56:09.483Z,16.60
2023-05-10T07:57:09.741Z,16.70
2023-05-10T07:58:10.072Z,16.77
2023-05-10T07:59:12.579Z,16.83
2023-05-10T08:00:10.602Z,16.93
2023-05-10T08:01:10.838Z,17.00
2023-05-10T08:02:11.071Z,17.03
2023-05-10T08:03:11.497Z,17.00
2023-05-10T08:04:11.689Z,17.00
2023-05-10T08:05:12.016Z,17.03
2023-05-10T08:06:12.123Z,17.10
2023-05-10T08:07:12.349Z,17.13
2023-05-10T08:08:12.586Z,17.20
2023-05-10T08:09:12.870Z,17.25
2023-05-10T08:10:13.098Z,17.28
2023-05-10T08:11:13.385Z,17.30
2023-05-10T08:12:13.637Z,17.38
2023-05-10T08:13:13.866Z,17.46
2023-05-10T08:14:14.093Z,17.55
2023-05-10T08:15:14.520Z,17.67
2023-05-10T08:16:14.656Z,17.74
2023-05-10T08:17:14.942Z,17.87
2023-05-10T08:18:15.269Z,17.99
2023-05-10T08:19:15.407Z,18.03
2023-05-10T08:20:15.657Z,18.15
2023-05-10T08:21:15.976Z,18.33
2023-05-10T08:22:16.181Z,18.46
2023-05-10T08:23:16.451Z,18.55
2023-05-10T08:24:16.703Z,18.61
2023-05-10T08:25:17.170Z,18.62
2023-05-10T08:26:17.229Z,18.58
2023-05-10T08:27:17.559Z,18.55
2023-05-10T08:28:17.891Z,18.47
2023-05-10T08:29:18.207Z,18.43
2023-05-10T08:30:18.600Z,18.49
2023-05-10T08:31:18.902Z,18.64
2023-05-10T08:32:19.217Z,18.84
2023-05-10T08:33:19.591Z,19.11
2023-05-10T08:34:19.898Z,19.32
2023-05-10T08:35:20.124Z,19.38
2023-05-10T08:36:20.512Z,19.51
2023-05-10T08:37:20.798Z,19.70
2023-05-10T08:38:21.107Z,19.94
2023-05-10T08:39:29.774Z,20.23
2023-05-10T08:40:22.815Z,20.51
2023-05-10T08:41:22.090Z,20.98
2023-05-10T08:42:22.278Z,21.51
2023-05-10T08:43:22.707Z,21.83
2023-05-10T08:44:22.870Z,22.09
2023-05-10T08:45:23.157Z,22.50
2023-05-10T08:46:23.368Z,22.96
2023-05-10T08:47:23.586Z,23.53
2023-05-10T08:48:23.936Z,24.10
2023-05-10T08:49:24.174Z,24.31
2023-05-10T08:50:24.412Z,24.26
2023-05-10T08:51:24.563Z,24.01
2023-05-10T08:52:24.959Z,23.71
2023-05-10T08:53:25.125Z,23.31
2023-05-10T08:54:25.519Z,22.86
2023-05-10T08:55:25.854Z,22.41
2023-05-10T08:56:26.175Z,22.01
2023-05-10T08:57:26.373Z,21.67
2023-05-10T08:58:26.749Z,21.04
2023-05-10T08:59:26.982Z,20.74
2023-05-10T09:00:27.163Z,20.58
2023-05-10T09:01:27.531Z,20.39
2023-05-10T09:02:27.757Z,20.15
2023-05-10T09:03:28.118Z,20.08
2023-05-10T09:04:28.520Z,20.10
2023-05-10T09:05:28.815Z,20.05
2023-05-10T09:06:28.996Z,19.95
2023-05-10T09:07:29.351Z,19.78
2023-05-10T09:08:29.550Z,19.79
2023-05-10T09:09:29.814Z,19.78
2023-05-10T09:10:30.097Z,19.68
2023-05-10T09:11:30.455Z,19.54
2023-05-10T09:12:30.769Z,19.31
2023-05-10T09:13:31.094Z,19.15
2023-05-10T09:14:31.408Z,19.05
2023-05-10T09:15:31.769Z,19.05
2023-05-10T09:16:31.905Z,19.14
2023-05-10T09:17:32.246Z,19.18
2023-05-10T09:18:32.607Z,19.25
2023-05-10T09:19:32.922Z,19.29
2023-05-10T09:20:33.266Z,19.29
2023-05-10T09:21:33.583Z,19.29
2023-05-10T09:22:33.868Z,19.20
2023-05-10T09:23:34.239Z,19.11
2023-05-10T09:24:34.527Z,19.02
2023-05-10T09:25:34.963Z,18.97
2023-05-10T09:26:35.177Z,18.87
2023-05-10T09:27:35.511Z,18.83
2023-05-10T09:28:35.855Z,18.77
2023-05-10T09:29:36.179Z,18.74
2023-05-10T09:30:36.422Z,18.67
2023-05-10T09:31:36.640Z,18.55
2023-05-10T09:32:36.933Z,18.50
2023-05-10T09:33:37.033Z,18.50
2023-05-10T09:34:37.407Z,18.46
2023-05-10T09:35:37.658Z,18.49
2023-05-10T09:36:38.017Z,18.49
2023-05-10T09:37:38.312Z,18.49
2023-05-10T09:38:38.612Z,18.57
2023-05-10T09:39:38.837Z,18.68
2023-05-10T09:40:39.214Z,18.80
2023-05-10T09:41:39.503Z,18.98
2023-05-10T09:42:39.876Z,19.14
2023-05-10T09:43:40.181Z,19.25
2023-05-10T09:44:40.590Z,19.29
2023-05-10T09:45:40.740Z,19.31
2023-05-10T09:46:41.097Z,19.36
2023-05-10T09:47:41.472Z,19.50
2023-05-10T09:48:41.676Z,19.65
2023-05-10T09:49:41.988Z,19.86
2023-05-10T09:50:42.316Z,20.02
2023-05-10T09:51:42.690Z,19.97
2023-05-10T09:52:42.921Z,19.98
2023-05-10T09:53:43.068Z,19.93
2023-05-10T09:54:43.435Z,19.90
2023-05-10T09:55:43.733Z,19.88
2023-05-10T09:56:44.049Z,19.94
2023-05-10T09:57:44.391Z,19.91
2023-05-10T09:58:44.738Z,19.90
2023-05-10T09:59:45.047Z,19.88
2023-05-10T10:00:45.404Z,19.76
2023-05-10T10:01:45.702Z,19.78
2023-05-10T10:02:46.029Z,19.80
2023-05-10T10:03:46.169Z,19.95
2023-05-10T10:04:46.730Z,19.93
2023-05-10T10:05:46.725Z,19.95
2023-05-10T10:06:47.000Z,19.97
2023-05-10T10:07:47.166Z,20.06
2023-05-10T10:08:47.764Z,20.02
2023-05-10T10:09:47.789Z,19.97
2023-05-10T10:10:48.113Z,19.98
2023-05-10T10:11:48.430Z,19.94
2023-05-10T10:12:48.571Z,19.87
2023-05-10T10:13:48.763Z,19.80
2023-05-10T10:14:49.038Z,19.76
2023-05-10T10:15:49.383Z,19.69
2023-05-10T10:17:05.555Z,19.63
2023-05-10T10:17:50.939Z,19.66
2023-05-10T10:18:50.245Z,19.66
2023-05-10T10:19:50.452Z,19.48
2023-05-10T10:20:50.663Z,19.39
2023-05-10T10:21:51.084Z,19.48
2023-05-10T10:22:51.144Z,19.48
2023-05-10T10:23:51.388Z,19.58
2023-05-10T10:24:51.666Z,19.60
2023-05-10T10:25:51.953Z,19.70
2023-05-10T10:26:52.165Z,19.90
2023-05-10T10:27:52.428Z,20.00
2023-05-10T10:28:52.699Z,20.13
2023-05-10T10:29:52.887Z,20.30
2023-05-10T10:30:53.136Z,20.43
2023-05-10T10:31:53.496Z,20.56
2023-05-10T10:32:53.624Z,20.54
2023-05-10T10:33:53.972Z,20.49
2023-05-10T10:34:54.212Z,20.47
2023-05-10T10:35:54.457Z,20.43
2023-05-10T10:36:54.764Z,20.30
2023-05-10T10:37:55.006Z,20.03
2023-05-10T10:38:55.219Z,19.94
2023-05-10T10:39:55.544Z,19.80
2023-05-10T10:40:55.792Z,19.57
2023-05-10T10:41:55.999Z,19.38
2023-05-10T10:42:56.252Z,19.29
2023-05-10T10:43:56.508Z,19.29
2023-05-10T10:44:56.829Z,19.32
2023-05-10T10:45:57.124Z,19.28
2023-05-10T10:46:57.340Z,19.23
2023-05-10T10:47:57.801Z,19.24
2023-05-10T10:48:57.995Z,19.29
2023-05-10T10:49:58.222Z,19.38
2023-05-10T10:50:58.445Z,19.47
2023-05-10T10:51:58.779Z,19.55
2023-05-10T10:52:59.089Z,19.79
2023-05-10T10:53:59.410Z,20.02
2023-05-10T10:54:59.758Z,20.12
2023-05-10T10:56:00.048Z,20.30
2023-05-10T10:57:00.385Z,20.51
2023-05-10T10:58:00.741Z,20.66
2023-05-10T10:59:01.110Z,20.72
2023-05-10T11:00:01.306Z,20.87
2023-05-10T11:01:01.569Z,21.09
2023-05-10T11:02:01.843Z,21.26
2023-05-10T11:03:02.221Z,21.39
2023-05-10T11:04:02.502Z,21.36
2023-05-10T11:05:02.800Z,21.17
2023-05-10T11:06:03.164Z,21.13
2023-05-10T11:07:03.463Z,21.14
2023-05-10T11:08:03.751Z,21.24
2023-05-10T11:09:03.995Z,21.26
2023-05-10T11:10:04.161Z,21.19
2023-05-10T11:11:04.619Z,21.17
2023-05-10T11:12:04.823Z,21.17
2023-05-10T11:13:05.116Z,21.02
2023-05-10T11:14:05.338Z,20.98
2023-05-10T11:15:05.693Z,20.96
2023-05-10T11:16:06.043Z,20.98
2023-05-10T11:17:06.376Z,21.02
2023-05-10T11:18:06.602Z,21.05
2023-05-10T11:19:06.998Z,21.21
2023-05-10T11:20:07.197Z,21.46
2023-05-10T11:21:07.396Z,21.59
2023-05-10T11:22:07.619Z,21.75
2023-05-10T11:23:07.955Z,21.90
2023-05-10T11:24:08.224Z,21.95
2023-05-10T11:25:08.437Z,22.04
2023-05-10T11:26:08.825Z,21.99
2023-05-10T11:27:09.187Z,21.99
2023-05-10T11:28:09.383Z,22.02
2023-05-10T11:29:09.770Z,21.92
2023-05-10T11:30:10.072Z,21.97
2023-05-10T11:31:10.417Z,21.75
2023-05-10T11:32:10.723Z,21.59
2023-05-10T11:33:11.041Z,21.59
2023-05-10T11:34:11.342Z,21.54
2023-05-10T11:35:11.729Z,21.66
2023-05-10T11:36:11.915Z,21.81
2023-05-10T11:37:12.281Z,21.85
2023-05-10T11:38:12.682Z,22.06
2023-05-10T11:39:12.927Z,22.29
2023-05-10T11:40:13.240Z,22.46
2023-05-10T11:41:13.608Z,22.64
2023-05-10T11:42:13.949Z,22.65
2023-05-10T11:43:14.261Z,22.71
2023-05-10T11:44:14.456Z,22.72
2023-05-10T11:45:14.802Z,22.52
2023-05-10T11:46:15.078Z,22.44
2023-05-10T11:47:15.389Z,21.88
2023-05-10T11:48:15.828Z,21.69
2023-05-10T11:49:15.997Z,21.78
2023-05-10T11:50:16.376Z,21.82
2023-05-10T11:51:16.575Z,21.74
2023-05-10T11:52:16.943Z,21.64
2023-05-10T11:53:17.300Z,21.38
2023-05-10T11:54:17.607Z,21.42
2023-05-10T11:55:17.938Z,21.36
2023-05-10T11:56:18.299Z,21.44
2023-05-10T11:57:18.633Z,21.39
2023-05-10T11:58:18.917Z,21.13
2023-05-10T11:59:19.263Z,20.86
2023-05-10T12:00:20.046Z,20.83
2023-05-10T12:01:19.913Z,20.90
2023-05-10T12:02:20.229Z,21.02
2023-05-10T12:03:20.648Z,21.09
2023-05-10T12:04:20.984Z,21.20
2023-05-10T12:05:21.067Z,21.32
2023-05-10T12:06:21.398Z,21.38
2023-05-10T12:07:21.827Z,21.39
2023-05-10T12:08:22.000Z,21.38
2023-05-10T12:09:35.487Z,21.32
2023-05-10T12:10:23.617Z,21.34
2023-05-10T12:11:23.019Z,21.20
2023-05-10T12:12:23.327Z,21.21
2023-05-10T12:13:23.656Z,21.26
2023-05-10T12:14:24.022Z,21.29
2023-05-10T12:15:24.330Z,21.38
2023-05-10T12:16:24.708Z,21.51
2023-05-10T12:17:24.908Z,21.66
2023-05-10T12:18:25.241Z,21.81
2023-05-10T12:19:25.563Z,21.99
2023-05-10T12:20:25.925Z,22.09
2023-05-10T12:21:26.266Z,22.22
2023-05-10T12:22:26.569Z,22.34
2023-05-10T12:23:26.855Z,22.06
2023-05-10T12:24:27.198Z,21.63
2023-05-10T12:25:27.412Z,21.48
2023-05-10T12:26:27.767Z,21.45
2023-05-10T12:27:28.109Z,21.51
2023-05-10T12:28:28.425Z,21.72
2023-05-10T12:29:28.725Z,21.74
2023-05-10T12:30:29.096Z,21.81
2023-05-10T12:31:29.549Z,21.94
2023-05-10T12:32:29.759Z,22.13
2023-05-10T12:33:29.949Z,22.20
2023-05-10T12:34:30.336Z,22.25
2023-05-10T12:35:30.552Z,22.34
2023-05-10T12:36:30.927Z,22.31
2023-05-10T12:37:31.088Z,22.20
2023-05-10T12:38:31.407Z,21.69
2023-05-10T12:39:31.723Z,21.38
2023-05-10T12:40:32.215Z,21.42
2023-05-10T12:41:32.334Z,21.46
2023-05-10T12:42:32.664Z,21.50
2023-05-10T12:43:33.053Z,21.57
2023-05-10T12:44:33.202Z,21.53
2023-05-10T12:45:33.592Z,21.17
2023-05-10T12:46:34.021Z,21.20
2023-05-10T12:47:34.216Z,21.24
2023-05-10T12:48:34.471Z,21.19
2023-05-10T12:49:34.784Z,21.32
2023-05-10T12:50:35.104Z,21.35
2023-05-10T12:51:35.483Z,21.46
2023-05-10T12:52:35.757Z,21.50
2023-05-10T12:53:36.195Z,21.50
2023-05-10T12:54:36.348Z,21.36
2023-05-10T12:55:36.681Z,21.29
2023-05-10T12:56:37.038Z,21.09